Buttonwillow, CA

6:29 PM PST on February 23, 2017 (GMT -0800)
MAT285 | | Change Station
Active Advisory: Freeze Warning

Elev 285 ft 35.40 °N, 119.47 °W | Updated 26 minutes ago

Clear
Clear
49.0 °F
Feels Like 48 °F
N
4.0
Wind Variable Wind from North
Gusts 6.0 mph

Today
High -- | Low -- °F
--% Chance of Precip.
Yesterday
High -- | Low -- °F
Precip. -- in
Pressure 30.14 in
Visibility 10.0 miles
Clouds Clear
Windchill 48 °F
Dew Point 34 °F
Humidity 57%
Rainfall 0.00 in
Snow Depth Not available.
6:34 AM 5:48 PM
Waning Crescent, 7% visible
METAR KBFL 240154Z 36005KT 10SM CLR 09/01 A3014 RMK AO2 SLP207 T00890011
Pressure 30.14 in
Visibility 10.0 miles
Clouds Clear
Windchill 48 °F
Dew Point 34 °F
Humidity 57%
Rainfall 0.00 in
Snow Depth Not available.
6:34 AM 5:48 PM
Waning Crescent, 7% visible
METAR KBFL 240154Z 36005KT 10SM CLR 09/01 A3014 RMK AO2 SLP207 T00890011

Get Your Daily Forecast Email!

Thanks for signing up!

Be on the lookout for a verification email in your inbox.

You'll start receiving the daily forecast at 8 AM.

×

10-Day Weather Forecast

Almanac

Astronomy

Feb. 23, 2017 Rise Set
Actual Time
Civil Twilight
Nautical Twilight
Astronomical Twilight
Moon
Length of Visible Light
Length of Day
Tomorrow will be .
, % of the Moon is Illuminated

Today's Extremes

State Highs State Lows

Community

WunderPhotos

Upload Photos

1,962,540 photos uploaded!

WunderBlog® & News

Nearby

Air Quality

  Air Quality AQ Index Pollutant
Not available.

Snow Depth

Station Depth Elevation

Earthquake Activity

City Distance Mag. Time & Date
Minimum magnitude displayed is 2.5.

Coastal Water Temperatures

Place Temperature

Stations

Nearby Weather Stations

Station Location Temp. Windchill Dew Point Humidity Wind Precip. Elev Updated Type
                   

Watches & Warnings

Freeze Warning
Issued: 11:10 AM PST Feb. 23, 2017 – National Weather Service

... Freeze warning in effect from 2 am to 8 am PST Friday...

The National Weather Service in Hanford has issued a freeze
warning, which is in effect from 2 am to 8 am PST Friday.

* Temperatures... ranging from 28 to 32 degrees in most rural
areas. Urban areas will have lows ranging from 31 to 35
degrees.

* Timing... late tonight through mid morning Friday.

* Impacts... below freezing temperatures will kill sensitive
vegetation.

Precautionary/preparedness actions...

A freeze warning means sub-freezing temperatures are imminent or
highly likely. These conditions will kill crops and other
sensitive vegetation.



Ds